sensor_id;sensor_type;location;lat;lon;timestamp;P1;durP1;ratioP1;P2;durP2;ratioP2
37323;SDS011;23205;49.986;18.950;2022-08-19T00:04:50;15.02;;;10.98;;
37323;SDS011;23205;49.986;18.950;2022-08-19T00:09:52;20.60;;;11.50;;
37323;SDS011;23205;49.986;18.950;2022-08-19T00:14:53;18.52;;;10.25;;
37323;SDS011;23205;49.986;18.950;2022-08-19T00:19:54;17.35;;;10.45;;
37323;SDS011;23205;49.986;18.950;2022-08-19T00:24:55;19.05;;;10.80;;
37323;SDS011;23205;49.986;18.950;2022-08-19T00:29:56;19.30;;;11.80;;
37323;SDS011;23205;49.986;18.950;2022-08-19T00:34:58;18.20;;;11.75;;
37323;SDS011;23205;49.986;18.950;2022-08-19T00:40:00;18.58;;;11.85;;
37323;SDS011;23205;49.986;18.950;2022-08-19T00:45:03;17.73;;;11.07;;
37323;SDS011;23205;49.986;18.950;2022-08-19T00:50:12;19.63;;;11.50;;
37323;SDS011;23205;49.986;18.950;2022-08-19T00:55:18;18.13;;;11.52;;
37323;SDS011;23205;49.986;18.950;2022-08-19T01:00:24;17.45;;;10.98;;
37323;SDS011;23205;49.986;18.950;2022-08-19T01:05:27;20.70;;;13.18;;
37323;SDS011;23205;49.986;18.950;2022-08-19T01:10:30;18.80;;;11.75;;
37323;SDS011;23205;49.986;18.950;2022-08-19T01:15:35;19.10;;;12.38;;
37323;SDS011;23205;49.986;18.950;2022-08-19T01:20:43;22.25;;;11.93;;
37323;SDS011;23205;49.986;18.950;2022-08-19T01:25:48;26.33;;;12.80;;
37323;SDS011;23205;49.986;18.950;2022-08-19T01:30:51;18.50;;;11.30;;
37323;SDS011;23205;49.986;18.950;2022-08-19T01:35:52;17.85;;;11.77;;
37323;SDS011;23205;49.986;18.950;2022-08-19T01:40:53;17.25;;;12.38;;
37323;SDS011;23205;49.986;18.950;2022-08-19T01:45:54;19.85;;;13.15;;
37323;SDS011;23205;49.986;18.950;2022-08-19T01:50:55;19.10;;;13.13;;
37323;SDS011;23205;49.986;18.950;2022-08-19T01:55:56;20.05;;;13.48;;
37323;SDS011;23205;49.986;18.950;2022-08-19T02:00:57;18.95;;;12.77;;
37323;SDS011;23205;49.986;18.950;2022-08-19T02:05:59;21.35;;;12.48;;
37323;SDS011;23205;49.986;18.950;2022-08-19T02:11:02;22.08;;;13.80;;
37323;SDS011;23205;49.986;18.950;2022-08-19T02:16:04;20.27;;;12.70;;
37323;SDS011;23205;49.986;18.950;2022-08-19T02:21:05;19.00;;;12.57;;
37323;SDS011;23205;49.986;18.950;2022-08-19T02:26:06;21.60;;;12.68;;
37323;SDS011;23205;49.986;18.950;2022-08-19T02:31:09;23.33;;;13.77;;
37323;SDS011;23205;49.986;18.950;2022-08-19T02:36:16;21.73;;;13.93;;
37323;SDS011;23205;49.986;18.950;2022-08-19T02:41:19;18.67;;;12.52;;
37323;SDS011;23205;49.986;18.950;2022-08-19T02:46:25;19.77;;;12.85;;
37323;SDS011;23205;49.986;18.950;2022-08-19T02:51:28;20.08;;;13.68;;
37323;SDS011;23205;49.986;18.950;2022-08-19T02:56:33;20.58;;;13.57;;
37323;SDS011;23205;49.986;18.950;2022-08-19T03:01:35;26.70;;;14.75;;
37323;SDS011;23205;49.986;18.950;2022-08-19T03:06:37;19.90;;;13.25;;
37323;SDS011;23205;49.986;18.950;2022-08-19T03:11:40;22.05;;;13.85;;
37323;SDS011;23205;49.986;18.950;2022-08-19T03:16:42;22.85;;;14.73;;
37323;SDS011;23205;49.986;18.950;2022-08-19T03:21:48;22.17;;;14.50;;
37323;SDS011;23205;49.986;18.950;2022-08-19T03:26:51;22.73;;;15.18;;
37323;SDS011;23205;49.986;18.950;2022-08-19T03:31:58;21.42;;;13.85;;
37323;SDS011;23205;49.986;18.950;2022-08-19T03:37:03;22.77;;;15.13;;
37323;SDS011;23205;49.986;18.950;2022-08-19T03:42:08;22.83;;;15.05;;
37323;SDS011;23205;49.986;18.950;2022-08-19T03:47:09;24.88;;;14.68;;
37323;SDS011;23205;49.986;18.950;2022-08-19T03:52:15;22.27;;;15.73;;
37323;SDS011;23205;49.986;18.950;2022-08-19T03:57:16;23.90;;;15.57;;
37323;SDS011;23205;49.986;18.950;2022-08-19T04:02:17;23.00;;;15.77;;
37323;SDS011;23205;49.986;18.950;2022-08-19T04:07:18;23.52;;;15.77;;
37323;SDS011;23205;49.986;18.950;2022-08-19T04:12:21;26.15;;;15.25;;
37323;SDS011;23205;49.986;18.950;2022-08-19T04:17:22;26.40;;;15.07;;
37323;SDS011;23205;49.986;18.950;2022-08-19T04:22:22;26.00;;;17.15;;
37323;SDS011;23205;49.986;18.950;2022-08-19T04:27:23;24.70;;;15.95;;
37323;SDS011;23205;49.986;18.950;2022-08-19T04:32:24;24.05;;;15.10;;
37323;SDS011;23205;49.986;18.950;2022-08-19T04:37:26;20.98;;;14.18;;
37323;SDS011;23205;49.986;18.950;2022-08-19T04:42:27;22.67;;;14.38;;
37323;SDS011;23205;49.986;18.950;2022-08-19T04:47:41;20.55;;;14.05;;
37323;SDS011;23205;49.986;18.950;2022-08-19T04:52:43;23.73;;;13.82;;
37323;SDS011;23205;49.986;18.950;2022-08-19T04:57:44;21.15;;;13.35;;
37323;SDS011;23205;49.986;18.950;2022-08-19T05:02:45;21.17;;;14.50;;
37323;SDS011;23205;49.986;18.950;2022-08-19T05:07:46;20.65;;;14.77;;
37323;SDS011;23205;49.986;18.950;2022-08-19T05:12:47;19.95;;;14.25;;
37323;SDS011;23205;49.986;18.950;2022-08-19T05:17:48;22.73;;;13.82;;
37323;SDS011;23205;49.986;18.950;2022-08-19T05:23:07;20.92;;;14.02;;
37323;SDS011;23205;49.986;18.950;2022-08-19T05:28:11;20.52;;;14.30;;
37323;SDS011;23205;49.986;18.950;2022-08-19T05:33:12;20.42;;;13.93;;
37323;SDS011;23205;49.986;18.950;2022-08-19T05:38:12;23.08;;;14.05;;
37323;SDS011;23205;49.986;18.950;2022-08-19T05:43:13;21.55;;;15.25;;
37323;SDS011;23205;49.986;18.950;2022-08-19T05:48:18;22.83;;;13.80;;
37323;SDS011;23205;49.986;18.950;2022-08-19T05:53:20;21.67;;;13.82;;
37323;SDS011;23205;49.986;18.950;2022-08-19T05:58:21;24.58;;;14.75;;
37323;SDS011;23205;49.986;18.950;2022-08-19T06:03:22;22.42;;;13.55;;
37323;SDS011;23205;49.986;18.950;2022-08-19T06:08:23;24.00;;;13.63;;
37323;SDS011;23205;49.986;18.950;2022-08-19T06:13:23;21.10;;;13.13;;
37323;SDS011;23205;49.986;18.950;2022-08-19T06:18:25;21.52;;;13.93;;
37323;SDS011;23205;49.986;18.950;2022-08-19T06:23:28;20.70;;;13.13;;
37323;SDS011;23205;49.986;18.950;2022-08-19T06:28:29;20.67;;;14.15;;
37323;SDS011;23205;49.986;18.950;2022-08-19T06:33:30;19.48;;;14.20;;
37323;SDS011;23205;49.986;18.950;2022-08-19T06:38:31;20.33;;;13.43;;
37323;SDS011;23205;49.986;18.950;2022-08-19T06:43:33;23.67;;;14.65;;
37323;SDS011;23205;49.986;18.950;2022-08-19T06:48:34;21.52;;;13.10;;
37323;SDS011;23205;49.986;18.950;2022-08-19T06:53:35;24.00;;;12.52;;
37323;SDS011;23205;49.986;18.950;2022-08-19T06:58:36;21.52;;;12.68;;
37323;SDS011;23205;49.986;18.950;2022-08-19T07:03:38;18.17;;;12.20;;
37323;SDS011;23205;49.986;18.950;2022-08-19T07:08:39;16.92;;;12.45;;
37323;SDS011;23205;49.986;18.950;2022-08-19T07:13:42;19.23;;;11.95;;
37323;SDS011;23205;49.986;18.950;2022-08-19T07:18:46;21.05;;;12.85;;
37323;SDS011;23205;49.986;18.950;2022-08-19T07:23:49;19.13;;;12.25;;
37323;SDS011;23205;49.986;18.950;2022-08-19T07:28:50;19.70;;;11.93;;
37323;SDS011;23205;49.986;18.950;2022-08-19T07:33:52;17.48;;;11.73;;
37323;SDS011;23205;49.986;18.950;2022-08-19T07:38:58;15.02;;;11.02;;
37323;SDS011;23205;49.986;18.950;2022-08-19T07:44:01;16.73;;;10.35;;
37323;SDS011;23205;49.986;18.950;2022-08-19T07:49:04;16.92;;;11.23;;
37323;SDS011;23205;49.986;18.950;2022-08-19T07:54:06;23.35;;;11.80;;
37323;SDS011;23205;49.986;18.950;2022-08-19T07:59:09;16.70;;;10.73;;
37323;SDS011;23205;49.986;18.950;2022-08-19T08:04:10;19.80;;;10.98;;
37323;SDS011;23205;49.986;18.950;2022-08-19T08:09:31;17.73;;;9.88;;
37323;SDS011;23205;49.986;18.950;2022-08-19T08:14:37;16.33;;;10.48;;
37323;SDS011;23205;49.986;18.950;2022-08-19T08:19:42;15.80;;;10.45;;
37323;SDS011;23205;49.986;18.950;2022-08-19T08:24:44;16.50;;;10.02;;
37323;SDS011;23205;49.986;18.950;2022-08-19T08:29:45;18.23;;;10.73;;
37323;SDS011;23205;49.986;18.950;2022-08-19T08:34:54;17.05;;;10.32;;
37323;SDS011;23205;49.986;18.950;2022-08-19T08:40:38;16.00;;;8.98;;
37323;SDS011;23205;49.986;18.950;2022-08-19T08:45:46;18.00;;;9.82;;
37323;SDS011;23205;49.986;18.950;2022-08-19T08:51:10;16.30;;;9.63;;
37323;SDS011;23205;49.986;18.950;2022-08-19T08:56:21;17.27;;;9.38;;
37323;SDS011;23205;49.986;18.950;2022-08-19T09:01:23;17.77;;;9.30;;
37323;SDS011;23205;49.986;18.950;2022-08-19T09:16:57;17.85;;;9.38;;
37323;SDS011;23205;49.986;18.950;2022-08-19T09:21:59;15.52;;;9.23;;
37323;SDS011;23205;49.986;18.950;2022-08-19T09:27:00;20.15;;;10.00;;
37323;SDS011;23205;49.986;18.950;2022-08-19T09:32:02;15.98;;;10.27;;
37323;SDS011;23205;49.986;18.950;2022-08-19T09:37:03;16.95;;;8.80;;
37323;SDS011;23205;49.986;18.950;2022-08-19T09:42:05;14.23;;;9.25;;
37323;SDS011;23205;49.986;18.950;2022-08-19T09:47:13;12.38;;;8.23;;
37323;SDS011;23205;49.986;18.950;2022-08-19T09:52:16;13.63;;;9.05;;
37323;SDS011;23205;49.986;18.950;2022-08-19T09:57:20;17.40;;;8.95;;
37323;SDS011;23205;49.986;18.950;2022-08-19T10:02:21;13.38;;;7.97;;
37323;SDS011;23205;49.986;18.950;2022-08-19T10:07:22;12.23;;;7.60;;
37323;SDS011;23205;49.986;18.950;2022-08-19T10:12:22;11.13;;;6.40;;
37323;SDS011;23205;49.986;18.950;2022-08-19T10:17:23;13.80;;;7.20;;
37323;SDS011;23205;49.986;18.950;2022-08-19T10:22:25;11.00;;;6.45;;
37323;SDS011;23205;49.986;18.950;2022-08-19T10:27:26;10.65;;;7.07;;
37323;SDS011;23205;49.986;18.950;2022-08-19T10:32:27;12.93;;;6.78;;
37323;SDS011;23205;49.986;18.950;2022-08-19T10:37:29;10.80;;;6.18;;
37323;SDS011;23205;49.986;18.950;2022-08-19T10:42:31;13.40;;;7.13;;
37323;SDS011;23205;49.986;18.950;2022-08-19T10:47:32;10.48;;;6.57;;
37323;SDS011;23205;49.986;18.950;2022-08-19T10:52:33;13.82;;;6.93;;
37323;SDS011;23205;49.986;18.950;2022-08-19T10:57:34;15.27;;;6.13;;
37323;SDS011;23205;49.986;18.950;2022-08-19T11:02:35;12.18;;;5.82;;
37323;SDS011;23205;49.986;18.950;2022-08-19T11:07:37;8.43;;;5.60;;
37323;SDS011;23205;49.986;18.950;2022-08-19T11:12:39;24.48;;;10.18;;
37323;SDS011;23205;49.986;18.950;2022-08-19T11:17:41;16.60;;;6.60;;
37323;SDS011;23205;49.986;18.950;2022-08-19T11:22:43;12.10;;;6.82;;
37323;SDS011;23205;49.986;18.950;2022-08-19T11:27:44;9.90;;;6.45;;
37323;SDS011;23205;49.986;18.950;2022-08-19T11:32:46;15.43;;;6.65;;
37323;SDS011;23205;49.986;18.950;2022-08-19T11:37:48;10.77;;;6.40;;
37323;SDS011;23205;49.986;18.950;2022-08-19T11:42:49;12.60;;;6.65;;
37323;SDS011;23205;49.986;18.950;2022-08-19T11:47:56;15.30;;;6.15;;
37323;SDS011;23205;49.986;18.950;2022-08-19T11:52:57;12.15;;;5.65;;
37323;SDS011;23205;49.986;18.950;2022-08-19T11:57:58;11.43;;;5.63;;
37323;SDS011;23205;49.986;18.950;2022-08-19T12:02:58;12.40;;;5.80;;
37323;SDS011;23205;49.986;18.950;2022-08-19T12:07:59;10.38;;;6.20;;
37323;SDS011;23205;49.986;18.950;2022-08-19T12:13:00;11.95;;;6.10;;
37323;SDS011;23205;49.986;18.950;2022-08-19T12:18:01;12.00;;;6.30;;
37323;SDS011;23205;49.986;18.950;2022-08-19T12:23:03;9.93;;;5.88;;
37323;SDS011;23205;49.986;18.950;2022-08-19T12:28:05;10.57;;;5.97;;
37323;SDS011;23205;49.986;18.950;2022-08-19T12:33:06;17.33;;;7.70;;
37323;SDS011;23205;49.986;18.950;2022-08-19T12:38:08;15.57;;;6.55;;
37323;SDS011;23205;49.986;18.950;2022-08-19T12:43:09;12.57;;;6.65;;
37323;SDS011;23205;49.986;18.950;2022-08-19T12:48:12;18.77;;;7.47;;
37323;SDS011;23205;49.986;18.950;2022-08-19T12:53:14;15.18;;;6.78;;
37323;SDS011;23205;49.986;18.950;2022-08-19T12:58:15;13.20;;;6.57;;
37323;SDS011;23205;49.986;18.950;2022-08-19T13:03:17;12.73;;;6.18;;
37323;SDS011;23205;49.986;18.950;2022-08-19T13:08:18;13.13;;;6.55;;
37323;SDS011;23205;49.986;18.950;2022-08-19T13:13:19;14.55;;;5.68;;
37323;SDS011;23205;49.986;18.950;2022-08-19T13:18:20;8.65;;;5.25;;
37323;SDS011;23205;49.986;18.950;2022-08-19T13:23:25;13.05;;;5.65;;
37323;SDS011;23205;49.986;18.950;2022-08-19T13:28:26;10.38;;;6.00;;
37323;SDS011;23205;49.986;18.950;2022-08-19T13:33:50;11.50;;;5.78;;
37323;SDS011;23205;49.986;18.950;2022-08-19T13:38:51;13.35;;;5.53;;
37323;SDS011;23205;49.986;18.950;2022-08-19T13:43:52;12.40;;;6.28;;
37323;SDS011;23205;49.986;18.950;2022-08-19T13:48:54;10.20;;;5.50;;
37323;SDS011;23205;49.986;18.950;2022-08-19T13:53:56;11.15;;;6.43;;
37323;SDS011;23205;49.986;18.950;2022-08-19T13:58:57;12.73;;;6.45;;
37323;SDS011;23205;49.986;18.950;2022-08-19T14:03:58;13.13;;;6.45;;
37323;SDS011;23205;49.986;18.950;2022-08-19T14:08:59;12.57;;;6.72;;
37323;SDS011;23205;49.986;18.950;2022-08-19T14:14:02;14.13;;;6.20;;
37323;SDS011;23205;49.986;18.950;2022-08-19T14:19:03;13.38;;;6.45;;
37323;SDS011;23205;49.986;18.950;2022-08-19T14:24:04;11.82;;;5.93;;
37323;SDS011;23205;49.986;18.950;2022-08-19T14:29:05;15.45;;;6.90;;
37323;SDS011;23205;49.986;18.950;2022-08-19T14:34:05;12.05;;;6.82;;
37323;SDS011;23205;49.986;18.950;2022-08-19T14:39:07;11.70;;;6.15;;
37323;SDS011;23205;49.986;18.950;2022-08-19T14:44:09;12.77;;;6.95;;
37323;SDS011;23205;49.986;18.950;2022-08-19T14:49:13;12.27;;;6.60;;
37323;SDS011;23205;49.986;18.950;2022-08-19T14:54:14;11.35;;;7.35;;
37323;SDS011;23205;49.986;18.950;2022-08-19T14:59:15;13.80;;;6.78;;
37323;SDS011;23205;49.986;18.950;2022-08-19T15:04:16;12.75;;;6.82;;
37323;SDS011;23205;49.986;18.950;2022-08-19T15:09:17;14.57;;;7.78;;
37323;SDS011;23205;49.986;18.950;2022-08-19T15:14:18;17.60;;;7.55;;
37323;SDS011;23205;49.986;18.950;2022-08-19T15:19:21;14.27;;;7.38;;
37323;SDS011;23205;49.986;18.950;2022-08-19T15:24:21;11.95;;;7.57;;
37323;SDS011;23205;49.986;18.950;2022-08-19T15:29:25;13.38;;;7.60;;
37323;SDS011;23205;49.986;18.950;2022-08-19T15:34:27;14.98;;;8.02;;
37323;SDS011;23205;49.986;18.950;2022-08-19T15:39:29;15.23;;;7.45;;
37323;SDS011;23205;49.986;18.950;2022-08-19T15:44:30;15.00;;;8.05;;
37323;SDS011;23205;49.986;18.950;2022-08-19T15:49:31;15.88;;;7.85;;
37323;SDS011;23205;49.986;18.950;2022-08-19T15:54:33;13.93;;;7.60;;
37323;SDS011;23205;49.986;18.950;2022-08-19T15:59:34;15.05;;;7.72;;
37323;SDS011;23205;49.986;18.950;2022-08-19T16:04:54;13.15;;;7.68;;
37323;SDS011;23205;49.986;18.950;2022-08-19T16:10:14;16.92;;;8.85;;
37323;SDS011;23205;49.986;18.950;2022-08-19T16:15:15;14.63;;;8.30;;
37323;SDS011;23205;49.986;18.950;2022-08-19T16:20:16;14.43;;;8.10;;
37323;SDS011;23205;49.986;18.950;2022-08-19T16:25:19;19.40;;;11.25;;
37323;SDS011;23205;49.986;18.950;2022-08-19T16:30:28;14.73;;;8.18;;
37323;SDS011;23205;49.986;18.950;2022-08-19T16:35:28;14.80;;;8.00;;
37323;SDS011;23205;49.986;18.950;2022-08-19T16:40:31;18.83;;;8.98;;
37323;SDS011;23205;49.986;18.950;2022-08-19T16:45:55;15.45;;;7.97;;
37323;SDS011;23205;49.986;18.950;2022-08-19T16:50:59;14.60;;;6.75;;
37323;SDS011;23205;49.986;18.950;2022-08-19T16:56:00;20.85;;;7.97;;
37323;SDS011;23205;49.986;18.950;2022-08-19T17:01:02;18.38;;;8.05;;
37323;SDS011;23205;49.986;18.950;2022-08-19T17:11:33;26.17;;;10.63;;
37323;SDS011;23205;49.986;18.950;2022-08-19T17:16:35;21.35;;;9.80;;
37323;SDS011;23205;49.986;18.950;2022-08-19T17:21:37;17.25;;;7.80;;
37323;SDS011;23205;49.986;18.950;2022-08-19T17:26:39;29.02;;;8.10;;
37323;SDS011;23205;49.986;18.950;2022-08-19T17:31:40;14.57;;;8.15;;
37323;SDS011;23205;49.986;18.950;2022-08-19T17:36:41;23.48;;;9.07;;
37323;SDS011;23205;49.986;18.950;2022-08-19T17:41:42;33.33;;;10.90;;
37323;SDS011;23205;49.986;18.950;2022-08-19T17:46:43;20.52;;;9.32;;
37323;SDS011;23205;49.986;18.950;2022-08-19T17:51:46;20.23;;;9.52;;
37323;SDS011;23205;49.986;18.950;2022-08-19T17:56:48;18.42;;;10.50;;
37323;SDS011;23205;49.986;18.950;2022-08-19T18:01:49;30.10;;;12.63;;
37323;SDS011;23205;49.986;18.950;2022-08-19T18:06:51;24.75;;;11.98;;
37323;SDS011;23205;49.986;18.950;2022-08-19T18:11:53;33.60;;;13.38;;
37323;SDS011;23205;49.986;18.950;2022-08-19T18:16:56;26.80;;;12.82;;
37323;SDS011;23205;49.986;18.950;2022-08-19T18:21:57;29.52;;;14.25;;
37323;SDS011;23205;49.986;18.950;2022-08-19T18:26:58;21.88;;;11.63;;
37323;SDS011;23205;49.986;18.950;2022-08-19T18:31:59;31.35;;;13.93;;
37323;SDS011;23205;49.986;18.950;2022-08-19T18:37:00;24.67;;;13.10;;
37323;SDS011;23205;49.986;18.950;2022-08-19T18:42:00;35.15;;;15.40;;
37323;SDS011;23205;49.986;18.950;2022-08-19T18:47:20;25.27;;;13.48;;
37323;SDS011;23205;49.986;18.950;2022-08-19T18:52:40;25.75;;;12.45;;
37323;SDS011;23205;49.986;18.950;2022-08-19T18:57:41;21.23;;;11.95;;
37323;SDS011;23205;49.986;18.950;2022-08-19T19:02:42;21.13;;;12.38;;
37323;SDS011;23205;49.986;18.950;2022-08-19T19:07:44;21.13;;;11.70;;
37323;SDS011;23205;49.986;18.950;2022-08-19T19:12:45;21.98;;;10.65;;
37323;SDS011;23205;49.986;18.950;2022-08-19T19:17:47;21.15;;;11.57;;
37323;SDS011;23205;49.986;18.950;2022-08-19T19:22:49;20.63;;;10.52;;
37323;SDS011;23205;49.986;18.950;2022-08-19T19:27:49;20.42;;;12.13;;
37323;SDS011;23205;49.986;18.950;2022-08-19T19:32:50;20.83;;;10.55;;
37323;SDS011;23205;49.986;18.950;2022-08-19T19:37:53;22.17;;;11.80;;
37323;SDS011;23205;49.986;18.950;2022-08-19T19:42:54;17.83;;;10.07;;
37323;SDS011;23205;49.986;18.950;2022-08-19T19:47:55;17.50;;;9.95;;
37323;SDS011;23205;49.986;18.950;2022-08-19T19:52:59;18.67;;;10.63;;
37323;SDS011;23205;49.986;18.950;2022-08-19T19:57:59;21.50;;;11.07;;
37323;SDS011;23205;49.986;18.950;2022-08-19T20:03:00;22.55;;;11.57;;
37323;SDS011;23205;49.986;18.950;2022-08-19T20:08:01;21.40;;;13.02;;
37323;SDS011;23205;49.986;18.950;2022-08-19T20:13:21;24.45;;;15.20;;
37323;SDS011;23205;49.986;18.950;2022-08-19T20:18:22;20.55;;;12.50;;
37323;SDS011;23205;49.986;18.950;2022-08-19T20:23:23;24.50;;;12.15;;
37323;SDS011;23205;49.986;18.950;2022-08-19T20:28:26;20.63;;;12.68;;
37323;SDS011;23205;49.986;18.950;2022-08-19T20:33:28;25.95;;;14.32;;
37323;SDS011;23205;49.986;18.950;2022-08-19T20:38:30;27.40;;;13.75;;
37323;SDS011;23205;49.986;18.950;2022-08-19T20:43:34;28.73;;;15.15;;
37323;SDS011;23205;49.986;18.950;2022-08-19T20:48:34;28.05;;;15.52;;
37323;SDS011;23205;49.986;18.950;2022-08-19T20:53:39;25.83;;;16.67;;
37323;SDS011;23205;49.986;18.950;2022-08-19T20:58:41;35.13;;;21.20;;
37323;SDS011;23205;49.986;18.950;2022-08-19T21:03:42;28.75;;;18.50;;
37323;SDS011;23205;49.986;18.950;2022-08-19T21:08:45;29.63;;;18.10;;
37323;SDS011;23205;49.986;18.950;2022-08-19T21:13:46;23.70;;;13.98;;
37323;SDS011;23205;49.986;18.950;2022-08-19T21:18:47;25.05;;;14.35;;
37323;SDS011;23205;49.986;18.950;2022-08-19T21:23:51;22.30;;;14.07;;
37323;SDS011;23205;49.986;18.950;2022-08-19T21:28:52;29.73;;;14.30;;
37323;SDS011;23205;49.986;18.950;2022-08-19T21:33:53;23.45;;;14.30;;
37323;SDS011;23205;49.986;18.950;2022-08-19T21:38:55;25.65;;;14.20;;
37323;SDS011;23205;49.986;18.950;2022-08-19T21:43:55;28.33;;;14.90;;
37323;SDS011;23205;49.986;18.950;2022-08-19T21:48:57;23.42;;;14.98;;
37323;SDS011;23205;49.986;18.950;2022-08-19T21:53:57;28.58;;;16.30;;
37323;SDS011;23205;49.986;18.950;2022-08-19T21:58:58;26.05;;;15.38;;
37323;SDS011;23205;49.986;18.950;2022-08-19T22:03:59;37.38;;;16.42;;
37323;SDS011;23205;49.986;18.950;2022-08-19T22:09:00;26.30;;;16.15;;
37323;SDS011;23205;49.986;18.950;2022-08-19T22:14:01;27.20;;;16.58;;
37323;SDS011;23205;49.986;18.950;2022-08-19T22:19:02;26.17;;;14.57;;
37323;SDS011;23205;49.986;18.950;2022-08-19T22:24:03;24.67;;;15.20;;
37323;SDS011;23205;49.986;18.950;2022-08-19T22:29:04;24.73;;;14.23;;
37323;SDS011;23205;49.986;18.950;2022-08-19T22:34:06;24.92;;;14.63;;
37323;SDS011;23205;49.986;18.950;2022-08-19T22:39:09;26.83;;;15.52;;
37323;SDS011;23205;49.986;18.950;2022-08-19T22:44:09;29.85;;;15.73;;
37323;SDS011;23205;49.986;18.950;2022-08-19T22:49:10;27.00;;;16.65;;
37323;SDS011;23205;49.986;18.950;2022-08-19T22:54:11;28.52;;;16.10;;
37323;SDS011;23205;49.986;18.950;2022-08-19T22:59:12;23.92;;;15.13;;
37323;SDS011;23205;49.986;18.950;2022-08-19T23:04:13;24.55;;;11.70;;
37323;SDS011;23205;49.986;18.950;2022-08-19T23:09:14;31.13;;;13.77;;
37323;SDS011;23205;49.986;18.950;2022-08-19T23:14:15;22.23;;;12.13;;
37323;SDS011;23205;49.986;18.950;2022-08-19T23:19:16;28.25;;;13.77;;
37323;SDS011;23205;49.986;18.950;2022-08-19T23:24:18;24.50;;;12.75;;
37323;SDS011;23205;49.986;18.950;2022-08-19T23:29:19;30.65;;;14.95;;
37323;SDS011;23205;49.986;18.950;2022-08-19T23:34:38;24.95;;;12.68;;
37323;SDS011;23205;49.986;18.950;2022-08-19T23:39:39;22.67;;;12.52;;
37323;SDS011;23205;49.986;18.950;2022-08-19T23:44:40;28.63;;;13.20;;
37323;SDS011;23205;49.986;18.950;2022-08-19T23:49:41;24.00;;;12.80;;
37323;SDS011;23205;49.986;18.950;2022-08-19T23:54:42;25.30;;;14.23;;
37323;SDS011;23205;49.986;18.950;2022-08-19T23:59:42;22.30;;;12.65;;
